createdAt,value
2022-11-02T00:01:46.830Z,17.75
2022-11-02T00:04:13.720Z,10.65
2022-11-02T00:06:41.314Z,18.75
2022-11-02T00:09:15.532Z,15.55
2022-11-02T00:11:44.400Z,31.77
2022-11-02T00:14:11.140Z,12.93
2022-11-02T00:16:42.424Z,14.48
2022-11-02T00:19:16.567Z,25.38
2022-11-02T00:21:46.127Z,15.65
2022-11-02T00:24:12.961Z,15.57
2022-11-02T00:26:39.672Z,13.65
2022-11-02T00:29:09.574Z,12.73
2022-11-02T00:31:36.230Z,16.30
2022-11-02T00:34:05.272Z,14.68
2022-11-02T00:36:32.058Z,14.10
2022-11-02T00:38:58.883Z,10.32
2022-11-02T00:41:25.556Z,18.92
2022-11-02T00:43:52.232Z,13.35
2022-11-02T00:46:21.215Z,11.95
2022-11-02T00:48:47.950Z,6.63
2022-11-02T00:51:16.876Z,11.98
2022-11-02T00:53:43.668Z,17.73
2022-11-02T00:56:17.373Z,16.48
2022-11-02T00:58:46.686Z,17.50
2022-11-02T01:01:15.774Z,15.75
2022-11-02T01:03:42.474Z,9.45
2022-11-02T01:06:14.613Z,12.77
2022-11-02T01:11:13.037Z,8.25
2022-11-02T01:13:39.853Z,6.60
2022-11-02T01:16:09.804Z,10.07
2022-11-02T01:18:39.783Z,11.55
2022-11-02T01:21:07.473Z,10.60
2022-11-02T01:23:38.006Z,10.98
2022-11-02T01:26:06.409Z,4.63
2022-11-02T01:28:33.198Z,9.30
2022-11-02T01:31:02.492Z,4.63
2022-11-02T01:33:29.189Z,17.38
2022-11-02T01:35:56.046Z,8.15
2022-11-02T01:38:28.147Z,12.95
2022-11-02T01:43:25.482Z,20.40
2022-11-02T01:46:27.421Z,3.95
2022-11-02T01:49:17.178Z,5.37
2022-11-02T01:52:08.114Z,5.82
2022-11-02T01:54:41.467Z,8.18
2022-11-02T01:57:12.382Z,7.50
2022-11-02T01:59:53.867Z,12.45
2022-11-02T02:02:26.219Z,12.13
2022-11-02T02:05:02.013Z,4.65
2022-11-02T02:07:30.719Z,7.15
2022-11-02T02:10:00.393Z,9.93
2022-11-02T02:12:29.243Z,6.30
2022-11-02T02:14:56.069Z,9.25
2022-11-02T02:17:41.747Z,15.10
2022-11-02T02:20:10.627Z,6.07
2022-11-02T02:23:08.254Z,10.35
2022-11-02T02:26:02.690Z,8.82
2022-11-02T02:28:34.402Z,5.10
2022-11-02T02:31:12.067Z,6.05
2022-11-02T02:33:59.870Z,8.30
2022-11-02T02:36:36.836Z,6.82
2022-11-02T02:39:36.145Z,6.13
2022-11-02T02:42:46.148Z,6.30
2022-11-02T02:45:16.658Z,4.68
2022-11-02T02:47:52.379Z,7.50
2022-11-02T02:50:25.905Z,11.85
2022-11-02T02:52:56.902Z,5.25
2022-11-02T02:55:32.787Z,10.00
2022-11-02T02:58:02.366Z,5.88
2022-11-02T03:00:33.941Z,8.48
2022-11-02T03:03:04.541Z,8.03
2022-11-02T03:05:35.311Z,11.70
2022-11-02T03:08:13.324Z,8.00
2022-11-02T03:10:59.355Z,5.60
2022-11-02T03:13:41.008Z,8.43
2022-11-02T03:17:01.367Z,8.05
2022-11-02T03:19:55.306Z,10.57
2022-11-02T03:22:44.585Z,9.93
2022-11-02T03:25:11.263Z,8.90
2022-11-02T03:28:20.761Z,4.95
2022-11-02T03:30:59.800Z,6.32
2022-11-02T03:33:36.960Z,4.47
2022-11-02T03:36:15.839Z,6.88
2022-11-02T03:39:10.937Z,8.38
2022-11-02T03:41:43.658Z,3.85
2022-11-02T03:44:19.895Z,5.00
2022-11-02T03:46:48.745Z,5.28
2022-11-02T03:49:18.625Z,12.15
2022-11-02T03:51:47.056Z,6.60
2022-11-02T03:54:40.841Z,5.18
2022-11-02T03:57:11.905Z,5.55
2022-11-02T03:59:40.708Z,3.97
2022-11-02T04:02:12.861Z,7.68
2022-11-02T04:04:53.563Z,6.63
2022-11-02T04:07:27.302Z,7.38
2022-11-02T04:09:54.017Z,7.43
2022-11-02T04:12:39.283Z,7.30
2022-11-02T04:15:06.702Z,6.72
2022-11-02T04:17:52.236Z,6.30
2022-11-02T04:20:23.933Z,8.48
2022-11-02T04:23:09.076Z,7.13
2022-11-02T04:25:35.725Z,7.35
2022-11-02T04:28:08.388Z,8.18
2022-11-02T04:30:35.051Z,6.53
2022-11-02T04:33:23.046Z,8.60
2022-11-02T04:35:49.689Z,6.28
2022-11-02T04:38:37.366Z,7.15
2022-11-02T04:41:24.902Z,6.88
2022-11-02T04:43:51.812Z,6.22
2022-11-02T04:46:19.021Z,8.23
2022-11-02T04:48:48.221Z,5.05
2022-11-02T04:51:15.233Z,8.07
2022-11-02T04:53:41.974Z,6.22
2022-11-02T04:56:11.486Z,7.13
2022-11-02T04:58:40.620Z,5.32
2022-11-02T05:01:11.706Z,5.80
2022-11-02T05:03:38.420Z,10.17
2022-11-02T05:06:05.481Z,6.95
2022-11-02T05:08:32.604Z,7.10
2022-11-02T05:10:59.757Z,9.40
2022-11-02T05:13:27.150Z,7.68
2022-11-02T05:15:58.098Z,8.20
2022-11-02T05:18:28.029Z,7.10
2022-11-02T05:20:58.869Z,9.23
2022-11-02T05:23:28.431Z,6.53
2022-11-02T05:25:59.047Z,7.82
2022-11-02T05:28:26.728Z,7.88
2022-11-02T05:30:53.766Z,12.27
2022-11-02T05:33:21.142Z,7.97
2022-11-02T05:35:47.949Z,8.82
2022-11-02T05:38:14.641Z,7.07
2022-11-02T05:40:43.613Z,8.68
2022-11-02T05:43:10.922Z,8.65
2022-11-02T05:45:39.871Z,7.35
2022-11-02T05:48:09.883Z,8.57
2022-11-02T05:50:36.562Z,4.88
2022-11-02T05:53:03.486Z,5.90
2022-11-02T05:55:30.283Z,7.10
2022-11-02T05:57:56.972Z,8.40
2022-11-02T06:00:25.871Z,8.57
2022-11-02T06:03:01.018Z,7.07
2022-11-02T06:05:27.972Z,9.20
2022-11-02T06:08:03.604Z,29.67
2022-11-02T06:10:30.838Z,30.40
2022-11-02T06:13:03.570Z,32.63
2022-11-02T06:15:34.407Z,24.85
2022-11-02T06:18:03.507Z,7.03
2022-11-02T06:20:30.211Z,6.85
2022-11-02T06:22:56.956Z,7.75
2022-11-02T06:25:23.634Z,5.53
2022-11-02T06:27:56.510Z,5.28
2022-11-02T06:30:24.216Z,3.80
2022-11-02T06:32:56.133Z,4.28
2022-11-02T06:35:23.405Z,4.88
2022-11-02T06:37:52.821Z,10.00
2022-11-02T06:40:25.640Z,13.82
2022-11-02T06:45:48.379Z,12.00
2022-11-02T06:48:17.832Z,9.07
2022-11-02T06:50:44.607Z,7.82
2022-11-02T06:53:11.324Z,8.27
2022-11-02T06:55:40.183Z,5.30
2022-11-02T06:58:09.079Z,6.47
2022-11-02T07:00:35.905Z,4.75
2022-11-02T07:03:05.586Z,5.53
2022-11-02T07:05:33.461Z,4.57
2022-11-02T07:08:00.180Z,5.38
2022-11-02T07:10:28.199Z,6.43
2022-11-02T07:12:56.545Z,3.22
2022-11-02T07:15:24.936Z,4.18
2022-11-02T07:17:52.358Z,5.32
2022-11-02T07:20:19.404Z,3.78
2022-11-02T07:22:59.239Z,4.68
2022-11-02T07:25:27.428Z,5.00
2022-11-02T07:27:54.335Z,5.80
2022-11-02T07:30:23.385Z,5.25
2022-11-02T07:32:50.117Z,5.03
2022-11-02T07:35:19.243Z,6.25
2022-11-02T07:37:55.532Z,5.75
2022-11-02T07:40:22.367Z,4.22
2022-11-02T07:42:49.100Z,5.25
2022-11-02T07:45:16.231Z,4.60
2022-11-02T07:47:48.750Z,4.80
2022-11-02T07:50:21.003Z,4.60
2022-11-02T07:52:52.839Z,4.78
2022-11-02T07:55:22.734Z,2.65
2022-11-02T07:57:54.102Z,3.40
2022-11-02T08:00:20.892Z,4.57
2022-11-02T08:02:47.619Z,5.03
2022-11-02T08:05:18.671Z,4.57
2022-11-02T08:07:45.369Z,7.20
2022-11-02T08:10:12.040Z,4.95
2022-11-02T08:12:39.319Z,4.75
2022-11-02T08:15:07.799Z,6.90
2022-11-02T08:17:34.724Z,9.02
2022-11-02T08:20:01.424Z,9.40
2022-11-02T08:22:28.081Z,9.43
2022-11-02T08:24:54.823Z,7.78
2022-11-02T08:27:21.536Z,9.85
2022-11-02T08:29:48.677Z,6.90
2022-11-02T08:32:17.512Z,6.82
2022-11-02T08:34:51.652Z,8.10
2022-11-02T08:37:18.394Z,5.90
2022-11-02T08:39:45.122Z,2.95
2022-11-02T08:42:14.208Z,3.90
2022-11-02T08:44:42.651Z,4.03
2022-11-02T08:47:09.885Z,5.20
2022-11-02T08:49:39.109Z,2.88
2022-11-02T08:52:05.797Z,6.22
2022-11-02T08:54:32.464Z,3.00
2022-11-02T08:57:01.264Z,3.60
2022-11-02T08:59:27.987Z,4.35
2022-11-02T09:01:57.273Z,5.90
2022-11-02T09:04:26.701Z,4.80
2022-11-02T09:06:55.511Z,3.58
2022-11-02T09:09:24.436Z,4.35
2022-11-02T09:11:53.594Z,6.32
2022-11-02T09:14:22.857Z,3.53
2022-11-02T09:16:49.583Z,4.72
2022-11-02T09:19:16.242Z,4.50
2022-11-02T09:21:43.010Z,6.18
2022-11-02T09:24:10.055Z,3.65
2022-11-02T09:26:36.728Z,7.07
2022-11-02T09:29:05.866Z,6.85
2022-11-02T09:31:34.796Z,5.82
2022-11-02T09:34:01.517Z,4.95
2022-11-02T09:36:28.201Z,5.07
2022-11-02T09:38:54.920Z,3.97
2022-11-02T09:41:33.693Z,6.20
2022-11-02T09:44:13.134Z,4.70
2022-11-02T09:46:43.062Z,5.50
2022-11-02T09:49:25.493Z,5.85
2022-11-02T09:52:00.515Z,9.13
2022-11-02T09:54:41.594Z,3.97
2022-11-02T09:57:27.449Z,4.13
2022-11-02T09:59:56.354Z,3.03
2022-11-02T10:02:32.644Z,3.75
2022-11-02T10:05:08.169Z,7.38
2022-11-02T10:07:56.554Z,4.13
2022-11-02T10:10:37.148Z,2.70
2022-11-02T10:13:23.843Z,7.32
2022-11-02T10:16:00.724Z,3.13
2022-11-02T10:18:30.066Z,5.53
2022-11-02T10:21:05.268Z,6.93
2022-11-02T10:23:39.024Z,6.78
2022-11-02T10:26:05.923Z,4.38
2022-11-02T10:28:40.063Z,3.95
2022-11-02T10:31:25.031Z,5.72
2022-11-02T10:33:57.061Z,4.97
2022-11-02T10:36:40.074Z,6.95
2022-11-02T10:39:16.539Z,9.00
2022-11-02T10:42:08.396Z,4.88
2022-11-02T10:44:50.383Z,6.85
2022-11-02T10:47:30.183Z,5.05
2022-11-02T10:50:12.398Z,4.00
2022-11-02T10:52:44.698Z,4.95
2022-11-02T10:55:49.562Z,3.92
2022-11-02T10:58:20.768Z,6.43
2022-11-02T11:00:48.216Z,7.65
2022-11-02T11:03:17.218Z,6.07
2022-11-02T11:05:52.126Z,6.68
2022-11-02T11:08:41.385Z,6.15
2022-11-02T11:11:33.409Z,4.13
2022-11-02T11:19:55.374Z,5.72
2022-11-02T11:22:38.544Z,4.97
2022-11-02T11:25:13.920Z,4.10
2022-11-02T11:27:51.803Z,5.18
2022-11-02T11:30:59.069Z,6.43
2022-11-02T11:33:23.502Z,5.00
2022-11-02T11:35:51.460Z,4.63
2022-11-02T11:38:24.144Z,5.93
2022-11-02T11:40:57.030Z,4.35
2022-11-02T11:43:28.251Z,4.90
2022-11-02T11:46:06.814Z,5.72
2022-11-02T11:48:41.215Z,5.78
2022-11-02T11:51:35.087Z,5.45
2022-11-02T11:54:13.885Z,5.45
2022-11-02T11:56:43.093Z,6.03
2022-11-02T11:59:46.509Z,4.53
2022-11-02T12:02:25.446Z,4.05
2022-11-02T12:05:02.696Z,5.80
2022-11-02T12:07:35.241Z,5.55
2022-11-02T12:10:50.397Z,2.17
2022-11-02T12:13:25.698Z,5.38
2022-11-02T12:15:58.685Z,8.07
2022-11-02T12:21:52.744Z,6.50
2022-11-02T12:24:19.409Z,4.70
2022-11-02T12:27:01.644Z,5.10
2022-11-02T12:29:54.674Z,4.07
2022-11-02T12:32:38.559Z,5.90
2022-11-02T12:35:36.185Z,6.55
2022-11-02T12:38:13.567Z,8.15
2022-11-02T12:40:55.012Z,6.60
2022-11-02T12:43:41.359Z,6.70
2022-11-02T12:46:37.193Z,6.20
2022-11-02T12:49:20.244Z,6.03
2022-11-02T12:52:19.186Z,4.18
2022-11-02T12:54:57.669Z,6.55
2022-11-02T12:57:30.218Z,6.68
2022-11-02T13:00:04.731Z,9.07
2022-11-02T13:03:00.762Z,5.03
2022-11-02T13:05:38.110Z,6.32
2022-11-02T13:08:13.927Z,5.25
2022-11-02T13:11:02.434Z,8.38
2022-11-02T13:13:37.179Z,8.15
2022-11-02T13:16:10.288Z,6.32
2022-11-02T13:18:50.699Z,7.38
2022-11-02T13:21:24.335Z,7.38
2022-11-02T13:23:58.864Z,6.90
2022-11-02T13:26:42.131Z,9.15
2022-11-02T13:29:29.757Z,6.47
2022-11-02T13:32:08.818Z,7.22
2022-11-02T13:34:38.449Z,6.28
2022-11-02T13:37:14.796Z,4.43
2022-11-02T13:39:55.979Z,5.03
2022-11-02T13:42:28.172Z,3.17
2022-11-02T13:45:15.205Z,6.82
2022-11-02T13:48:50.093Z,8.98
2022-11-02T13:51:38.304Z,7.03
2022-11-02T13:54:16.264Z,7.93
2022-11-02T13:56:47.330Z,5.88
2022-11-02T13:59:43.235Z,8.70
2022-11-02T14:02:18.541Z,5.95
2022-11-02T14:04:48.672Z,6.35
2022-11-02T14:07:34.172Z,5.75
2022-11-02T14:10:22.806Z,7.18
2022-11-02T14:12:54.269Z,8.38
2022-11-02T14:15:20.889Z,8.48
2022-11-02T14:17:55.468Z,7.65
2022-11-02T14:20:38.332Z,5.85
2022-11-02T14:23:18.521Z,4.22
2022-11-02T14:25:55.973Z,8.73
2022-11-02T14:28:27.226Z,5.93
2022-11-02T14:31:15.508Z,9.05
2022-11-02T14:34:00.542Z,7.78
2022-11-02T14:36:50.321Z,6.18
2022-11-02T14:39:38.784Z,5.32
2022-11-02T14:42:16.618Z,6.68
2022-11-02T14:45:06.912Z,5.72
2022-11-02T14:47:37.273Z,7.53
2022-11-02T14:50:14.867Z,8.52
2022-11-02T14:52:55.217Z,8.50
2022-11-02T14:55:30.812Z,7.32
2022-11-02T14:58:11.029Z,8.60
2022-11-02T15:00:47.471Z,7.95
2022-11-02T15:03:31.646Z,6.35
2022-11-02T15:06:23.792Z,8.13
2022-11-02T15:09:00.683Z,7.72
2022-11-02T15:11:49.719Z,7.28
2022-11-02T15:14:31.488Z,6.43
2022-11-02T15:16:58.547Z,9.90
2022-11-02T15:19:47.147Z,7.40
2022-11-02T15:22:29.318Z,5.00
2022-11-02T15:27:29.538Z,6.03
2022-11-02T15:30:02.704Z,7.00
2022-11-02T15:32:34.877Z,8.07
2022-11-02T15:37:50.565Z,6.97
2022-11-02T15:40:29.280Z,7.47
2022-11-02T15:43:39.950Z,7.63
2022-11-02T15:46:15.171Z,19.13
2022-11-02T15:49:04.284Z,19.48
2022-11-02T15:51:53.333Z,15.75
2022-11-02T15:54:46.741Z,10.80
2022-11-02T15:57:22.698Z,8.10
2022-11-02T16:00:21.940Z,6.63
2022-11-02T16:02:53.068Z,9.20
2022-11-02T16:05:24.430Z,7.70
2022-11-02T16:08:11.959Z,8.25
2022-11-02T16:10:38.980Z,10.00
2022-11-02T16:13:16.844Z,12.35
2022-11-02T16:15:45.201Z,17.52
2022-11-02T16:18:42.471Z,19.23
2022-11-02T16:21:17.681Z,19.25
2022-11-02T16:23:55.741Z,12.45
2022-11-02T16:26:26.821Z,16.80
2022-11-02T16:28:55.796Z,17.93
2022-11-02T16:31:25.090Z,14.65
2022-11-02T16:33:54.501Z,8.73
2022-11-02T16:36:31.258Z,15.00
2022-11-02T16:38:59.380Z,9.80
2022-11-02T16:41:27.948Z,9.70
2022-11-02T16:43:55.828Z,8.45
2022-11-02T16:46:34.037Z,10.00
2022-11-02T16:49:24.663Z,14.70
2022-11-02T16:52:20.565Z,12.35
2022-11-02T16:54:47.589Z,11.38
2022-11-02T16:57:21.527Z,20.00
2022-11-02T17:00:01.933Z,16.90
2022-11-02T17:02:42.436Z,11.02
2022-11-02T17:05:22.782Z,6.55
2022-11-02T17:08:09.577Z,8.95
2022-11-02T17:10:39.959Z,11.88
2022-11-02T17:13:21.335Z,14.55
2022-11-02T17:15:51.379Z,13.10
2022-11-02T17:18:23.386Z,7.80
2022-11-02T17:23:37.017Z,10.85
2022-11-02T17:26:25.001Z,7.22
2022-11-02T17:28:55.063Z,9.25
2022-11-02T17:31:38.155Z,7.15
2022-11-02T17:34:23.509Z,6.28
2022-11-02T17:36:56.513Z,8.30
2022-11-02T17:39:27.874Z,8.13
2022-11-02T17:42:31.779Z,11.18
2022-11-02T17:44:58.558Z,12.55
2022-11-02T17:47:28.907Z,7.00
2022-11-02T17:49:55.585Z,9.88
2022-11-02T17:52:22.323Z,10.50
2022-11-02T17:54:51.454Z,8.07
2022-11-02T17:57:19.111Z,9.70
2022-11-02T17:59:46.184Z,10.38
2022-11-02T18:02:15.236Z,10.98
2022-11-02T18:07:19.057Z,8.57
2022-11-02T18:12:17.528Z,10.55
2022-11-02T18:14:44.476Z,10.80
2022-11-02T18:17:11.370Z,9.75
2022-11-02T18:19:38.120Z,11.70
2022-11-02T18:22:04.819Z,11.38
2022-11-02T18:24:33.753Z,13.98
2022-11-02T18:27:00.434Z,16.42
2022-11-02T18:29:29.576Z,17.92
2022-11-02T18:31:57.714Z,19.92
2022-11-02T18:34:26.633Z,21.67
2022-11-02T18:36:55.627Z,13.40
2022-11-02T18:39:24.838Z,18.45
2022-11-02T18:41:53.341Z,26.70
2022-11-02T18:44:20.083Z,19.00
2022-11-02T18:46:46.900Z,30.00
2022-11-02T18:49:14.570Z,15.45
2022-11-02T18:51:43.511Z,13.50
2022-11-02T18:54:10.331Z,15.20
2022-11-02T18:56:39.114Z,23.65
2022-11-02T18:59:07.999Z,21.00
2022-11-02T19:01:35.008Z,9.43
2022-11-02T19:04:02.598Z,24.50
2022-11-02T19:06:49.830Z,11.23
2022-11-02T19:09:21.047Z,21.92
2022-11-02T19:12:14.259Z,12.88
2022-11-02T19:14:52.901Z,21.00
2022-11-02T19:17:27.029Z,13.45
2022-11-02T19:19:54.295Z,14.13
2022-11-02T19:22:25.564Z,12.23
2022-11-02T19:25:09.747Z,7.80
2022-11-02T19:27:39.507Z,10.82
2022-11-02T19:30:07.133Z,17.70
2022-11-02T19:32:47.307Z,9.40
2022-11-02T19:35:14.116Z,8.65
2022-11-02T19:37:46.950Z,8.95
2022-11-02T19:43:19.955Z,12.30
2022-11-02T19:46:14.718Z,12.25
2022-11-02T19:48:43.088Z,7.20
2022-11-02T19:51:48.299Z,7.07
2022-11-02T19:54:22.902Z,8.02
2022-11-02T19:56:54.624Z,11.05
2022-11-02T19:59:25.897Z,12.60
2022-11-02T20:01:52.875Z,12.57
2022-11-02T20:04:22.698Z,6.13
2022-11-02T20:06:49.422Z,11.52
2022-11-02T20:09:18.367Z,13.80
2022-11-02T20:14:42.652Z,5.90
2022-11-02T20:18:13.443Z,11.43
2022-11-02T20:20:36.724Z,9.52
2022-11-02T20:23:03.638Z,7.00
2022-11-02T20:25:40.388Z,12.35
2022-11-02T20:28:10.370Z,7.53
2022-11-02T20:30:46.065Z,10.38
2022-11-02T20:33:21.122Z,8.65
2022-11-02T20:35:50.517Z,10.07
2022-11-02T20:38:17.283Z,6.80
2022-11-02T20:40:49.594Z,9.50
2022-11-02T20:43:23.781Z,10.10
2022-11-02T20:45:50.573Z,10.90
2022-11-02T20:48:26.021Z,8.30
2022-11-02T20:51:02.022Z,8.30
2022-11-02T20:53:31.384Z,9.38
2022-11-02T20:56:07.682Z,12.20
2022-11-02T20:58:34.439Z,9.23
2022-11-02T21:01:11.135Z,11.55
2022-11-02T21:03:41.090Z,10.25
2022-11-02T21:06:17.081Z,9.18
2022-11-02T21:08:43.788Z,8.25
2022-11-02T21:11:39.020Z,10.80
2022-11-02T21:14:21.147Z,9.05
2022-11-02T21:16:50.751Z,9.35
2022-11-02T21:19:31.963Z,11.85
2022-11-02T21:22:00.150Z,5.47
2022-11-02T21:24:28.102Z,7.38
2022-11-02T21:26:54.990Z,9.32
2022-11-02T21:29:26.450Z,7.45
2022-11-02T21:31:53.167Z,6.18
2022-11-02T21:34:19.912Z,8.80
2022-11-02T21:36:47.530Z,9.95
2022-11-02T21:39:14.284Z,9.07
2022-11-02T21:41:41.006Z,8.40
2022-11-02T21:44:11.589Z,8.13
2022-11-02T21:46:38.278Z,7.63
2022-11-02T21:49:04.952Z,7.63
2022-11-02T21:51:34.721Z,11.85
2022-11-02T21:54:03.546Z,13.80
2022-11-02T21:56:34.177Z,9.60
2022-11-02T21:59:03.086Z,8.50
2022-11-02T22:01:50.131Z,11.55
2022-11-02T22:04:24.815Z,7.80
2022-11-02T22:06:54.824Z,8.07
2022-11-02T22:09:22.125Z,7.78
2022-11-02T22:12:08.969Z,10.05
2022-11-02T22:14:40.031Z,9.73
2022-11-02T22:17:16.248Z,10.15
2022-11-02T22:22:16.423Z,10.35
2022-11-02T22:24:44.929Z,11.88
2022-11-02T22:27:11.908Z,11.85
2022-11-02T22:29:40.831Z,10.02
2022-11-02T22:32:09.963Z,10.23
2022-11-02T22:34:38.855Z,12.40
2022-11-02T22:37:23.904Z,9.20
2022-11-02T22:39:50.567Z,11.25
2022-11-02T22:42:17.320Z,9.68
2022-11-02T22:44:46.287Z,16.77
2022-11-02T22:47:15.340Z,14.20
2022-11-02T22:49:42.058Z,9.98
2022-11-02T22:52:11.146Z,9.70
2022-11-02T22:54:42.516Z,13.88
2022-11-02T22:57:13.880Z,7.68
2022-11-02T22:59:40.543Z,9.65
2022-11-02T23:02:07.309Z,11.75
2022-11-02T23:04:36.167Z,9.98
2022-11-02T23:07:05.115Z,10.45
2022-11-02T23:09:31.893Z,12.32
2022-11-02T23:11:58.567Z,12.85
2022-11-02T23:14:25.219Z,8.45
2022-11-02T23:16:54.497Z,12.73
2022-11-02T23:19:31.621Z,14.90
2022-11-02T23:22:22.858Z,14.75
2022-11-02T23:25:12.597Z,8.15
2022-11-02T23:28:15.282Z,10.02
2022-11-02T23:31:03.134Z,8.48
2022-11-02T23:33:36.117Z,8.77
2022-11-02T23:36:12.364Z,7.82
2022-11-02T23:39:01.259Z,10.80
2022-11-02T23:41:31.556Z,7.80
2022-11-02T23:44:19.117Z,10.38
2022-11-02T23:46:50.655Z,6.93
2022-11-02T23:49:18.423Z,8.38
2022-11-02T23:52:19.574Z,9.63
2022-11-02T23:55:05.038Z,10.73
2022-11-02T23:57:36.614Z,14.07
